createdAt,value
2024-03-26T00:01:28.706Z,99448.17
2024-03-26T00:03:56.195Z,99446.12
2024-03-26T00:06:23.654Z,99444.34
2024-03-26T00:08:51.061Z,99442.49
2024-03-26T00:11:18.576Z,99440.39
2024-03-26T00:13:46.025Z,99438.63
2024-03-26T00:16:13.640Z,99441.80
2024-03-26T00:18:41.152Z,99446.98
2024-03-26T00:21:08.656Z,99448.27
2024-03-26T00:23:36.267Z,99451.77
2024-03-26T00:26:03.700Z,99455.59
2024-03-26T00:28:31.178Z,99451.88
2024-03-26T00:30:58.636Z,99451.05
2024-03-26T00:33:26.069Z,99449.23
2024-03-26T00:35:53.656Z,99455.05
2024-03-26T00:38:21.063Z,99453.88
2024-03-26T00:40:48.475Z,99447.85
2024-03-26T00:43:15.925Z,99446.91
2024-03-26T00:45:43.381Z,99446.41
2024-03-26T00:48:11.198Z,99444.16
2024-03-26T00:50:38.682Z,99440.14
2024-03-26T00:53:06.167Z,99442.64
2024-03-26T00:55:33.672Z,99441.79
2024-03-26T00:58:01.097Z,99439.74
2024-03-26T01:00:28.481Z,99438.92
2024-03-26T01:02:55.995Z,99438.48
2024-03-26T01:05:23.660Z,99441.29
2024-03-26T01:07:51.113Z,99443.45
2024-03-26T01:10:18.580Z,99446.90
2024-03-26T01:12:45.980Z,99448.40
2024-03-26T01:15:13.499Z,99450.23
2024-03-26T01:17:40.965Z,99444.64
2024-03-26T01:20:08.842Z,99450.30
2024-03-26T01:22:36.277Z,99451.33
2024-03-26T01:25:04.154Z,99450.93
2024-03-26T01:27:31.649Z,99449.74
2024-03-26T01:29:59.263Z,99448.13
2024-03-26T01:32:27.335Z,99456.70
2024-03-26T01:34:54.890Z,99457.83
2024-03-26T01:37:22.566Z,99456.79
2024-03-26T01:39:49.905Z,99461.38
2024-03-26T01:42:17.468Z,99465.39
2024-03-26T01:44:45.652Z,99466.42
2024-03-26T01:47:13.247Z,99469.14
2024-03-26T01:49:40.762Z,99471.39
2024-03-26T01:52:08.316Z,99469.25
2024-03-26T01:54:35.777Z,99470.82
2024-03-26T01:57:03.332Z,99470.54
2024-03-26T01:59:30.898Z,99466.89
2024-03-26T02:01:59.501Z,99469.26
2024-03-26T02:04:26.945Z,99465.88
2024-03-26T02:06:54.406Z,99465.88
2024-03-26T02:09:22.160Z,99467.79
2024-03-26T02:11:49.617Z,99465.80
2024-03-26T02:14:18.203Z,99463.29
2024-03-26T02:16:46.172Z,99467.42
2024-03-26T02:19:14.548Z,99464.57
2024-03-26T02:21:42.111Z,99469.73
2024-03-26T02:24:09.773Z,99467.08
2024-03-26T02:26:37.393Z,99474.48
2024-03-26T02:29:04.790Z,99475.77
2024-03-26T02:31:32.349Z,99478.08
2024-03-26T02:33:59.807Z,99483.77
2024-03-26T02:36:27.468Z,99493.13
2024-03-26T02:38:54.924Z,99495.36
2024-03-26T02:41:22.483Z,99499.12
2024-03-26T02:43:49.942Z,99501.05
2024-03-26T02:46:17.812Z,99502.10
2024-03-26T02:48:45.267Z,99508.07
2024-03-26T02:51:12.725Z,99505.99
2024-03-26T02:53:40.389Z,99507.06
2024-03-26T02:56:08.147Z,99508.80
2024-03-26T02:58:35.484Z,99520.07
2024-03-26T03:01:12.383Z,99522.27
2024-03-26T03:03:39.950Z,99529.32
2024-03-26T03:06:10.987Z,99528.79
2024-03-26T03:08:38.872Z,99534.60
2024-03-26T03:11:06.415Z,99536.93
2024-03-26T03:13:33.971Z,99538.64
2024-03-26T03:16:01.430Z,99546.27
2024-03-26T03:18:28.789Z,99551.55
2024-03-26T03:20:56.351Z,99553.34
2024-03-26T03:23:23.805Z,99558.29
2024-03-26T03:25:55.158Z,99561.80
2024-03-26T03:28:22.825Z,99564.05
2024-03-26T03:30:50.278Z,99564.98
2024-03-26T03:33:17.731Z,99565.70
2024-03-26T03:35:45.187Z,99570.54
2024-03-26T03:38:12.593Z,99576.27
2024-03-26T03:40:40.001Z,99580.15
2024-03-26T03:43:07.455Z,99582.79
2024-03-26T03:47:43.064Z,99582.45
2024-03-26T03:50:10.584Z,99579.13
2024-03-26T03:52:37.938Z,99584.95
2024-03-26T03:55:05.890Z,99586.31
2024-03-26T03:57:33.257Z,99588.54
2024-03-26T04:00:01.974Z,99594.58
2024-03-26T04:02:39.281Z,99608.23
2024-03-26T04:05:07.304Z,99614.80
2024-03-26T04:07:35.581Z,99615.09
2024-03-26T04:10:04.311Z,99616.30
2024-03-26T04:12:32.043Z,99618.03
2024-03-26T04:14:59.565Z,99618.48
2024-03-26T04:17:27.275Z,99622.97
2024-03-26T04:20:03.220Z,99629.33
2024-03-26T04:22:33.405Z,99637.15
2024-03-26T04:25:01.505Z,99638.70
2024-03-26T04:27:28.873Z,99641.94
2024-03-26T04:29:56.423Z,99645.80
2024-03-26T04:32:23.925Z,99646.34
2024-03-26T04:34:51.436Z,99653.50
2024-03-26T04:37:19.414Z,99660.73
2024-03-26T04:39:47.477Z,99662.25
2024-03-26T04:42:14.937Z,99668.86
2024-03-26T04:44:42.339Z,99671.77
2024-03-26T04:47:09.952Z,99670.58
2024-03-26T04:49:37.363Z,99668.95
2024-03-26T04:52:04.873Z,99672.41
2024-03-26T04:54:32.280Z,99678.95
2024-03-26T04:56:59.804Z,99686.16
2024-03-26T04:59:27.291Z,99685.83
2024-03-26T05:01:54.801Z,99689.28
2024-03-26T05:04:22.871Z,99692.36
2024-03-26T05:06:50.533Z,99697.45
2024-03-26T05:09:17.991Z,99701.61
2024-03-26T05:11:45.452Z,99702.23
2024-03-26T05:14:13.053Z,99703.67
2024-03-26T05:16:40.466Z,99704.81
2024-03-26T05:19:07.927Z,99706.88
2024-03-26T05:21:35.401Z,99716.48
2024-03-26T05:24:14.209Z,99716.77
2024-03-26T05:26:49.002Z,99723.58
2024-03-26T05:29:22.606Z,99728.31
2024-03-26T05:31:53.514Z,99732.36
2024-03-26T05:34:25.664Z,99728.19
2024-03-26T05:36:54.121Z,99736.58
2024-03-26T05:39:22.745Z,99739.81
2024-03-26T05:41:51.947Z,99739.60
2024-03-26T05:44:19.320Z,99743.66
2024-03-26T05:46:46.761Z,99748.35
2024-03-26T05:49:15.242Z,99743.96
2024-03-26T05:51:43.316Z,99742.55
2024-03-26T05:54:10.746Z,99747.09
2024-03-26T05:56:38.878Z,99754.23
2024-03-26T05:59:06.479Z,99754.30
2024-03-26T06:01:34.121Z,99760.79
2024-03-26T06:04:02.786Z,99764.14
2024-03-26T06:06:30.443Z,99767.48
2024-03-26T06:08:57.844Z,99772.05
2024-03-26T06:11:25.492Z,99776.23
2024-03-26T06:13:52.945Z,99782.33
2024-03-26T06:16:20.712Z,99779.84
2024-03-26T06:18:48.173Z,99779.25
2024-03-26T06:21:15.730Z,99783.27
2024-03-26T06:23:43.903Z,99787.19
2024-03-26T06:26:11.574Z,99788.98
2024-03-26T06:28:39.122Z,99794.11
2024-03-26T06:31:06.533Z,99791.50
2024-03-26T06:33:34.042Z,99787.30
2024-03-26T06:36:01.556Z,99795.46
2024-03-26T06:38:29.209Z,99794.20
2024-03-26T06:40:58.516Z,99795.30
2024-03-26T06:43:25.966Z,99796.89
2024-03-26T06:45:54.194Z,99795.17
2024-03-26T06:48:21.654Z,99797.73
2024-03-26T06:50:49.277Z,99802.57
2024-03-26T06:53:16.714Z,99804.54
2024-03-26T06:55:44.337Z,99807.83
2024-03-26T06:58:11.744Z,99810.98
2024-03-26T07:00:39.165Z,99808.11
2024-03-26T07:03:07.577Z,99812.84
2024-03-26T07:05:35.147Z,99814.20
2024-03-26T07:08:03.873Z,99817.86
2024-03-26T07:10:31.436Z,99817.25
2024-03-26T07:12:59.099Z,99826.35
2024-03-26T07:15:26.633Z,99831.54
2024-03-26T07:17:58.597Z,99836.14
2024-03-26T07:20:28.941Z,99842.55
2024-03-26T07:23:00.578Z,99843.36
2024-03-26T07:25:28.333Z,99845.69
2024-03-26T07:27:58.297Z,99844.22
2024-03-26T07:30:25.954Z,99847.39
2024-03-26T07:32:53.358Z,99847.77
2024-03-26T07:35:21.477Z,99850.84
2024-03-26T07:37:50.201Z,99852.52
2024-03-26T07:40:17.554Z,99856.80
2024-03-26T07:42:45.274Z,99859.08
2024-03-26T07:45:15.737Z,99860.81
2024-03-26T07:47:43.452Z,99860.87
2024-03-26T07:50:11.643Z,99863.39
2024-03-26T07:52:39.204Z,99860.56
2024-03-26T07:55:07.007Z,99863.73
2024-03-26T07:57:34.908Z,99867.77
2024-03-26T08:00:02.730Z,99870.92
2024-03-26T08:02:38.983Z,99879.18
2024-03-26T08:05:08.730Z,99878.17
2024-03-26T08:07:38.608Z,99876.50
2024-03-26T08:10:07.392Z,99877.99
2024-03-26T08:12:35.467Z,99880.69
2024-03-26T08:15:03.285Z,99882.52
2024-03-26T08:17:31.921Z,99886.77
2024-03-26T08:19:59.599Z,99881.28
2024-03-26T08:22:27.332Z,99884.30
2024-03-26T08:24:55.376Z,99882.24
2024-03-26T08:27:22.908Z,99887.67
2024-03-26T08:29:52.291Z,99892.70
2024-03-26T08:32:19.964Z,99891.56
2024-03-26T08:34:47.543Z,99894.25
2024-03-26T08:37:15.251Z,99893.38
2024-03-26T08:39:43.661Z,99891.52
2024-03-26T08:42:12.629Z,99897.78
2024-03-26T08:44:40.130Z,99886.98
2024-03-26T08:47:07.947Z,99886.29
2024-03-26T08:49:35.506Z,99884.94
2024-03-26T08:52:03.273Z,99892.22
2024-03-26T08:54:30.731Z,99888.98
2024-03-26T08:56:58.350Z,99888.23
2024-03-26T08:59:26.822Z,99890.21
2024-03-26T09:01:54.330Z,99892.64
2024-03-26T09:04:23.960Z,99896.41
2024-03-26T09:06:52.939Z,99898.50
2024-03-26T09:09:20.452Z,99899.52
2024-03-26T09:11:50.923Z,99895.57
2024-03-26T09:14:18.636Z,99898.05
2024-03-26T09:16:46.493Z,99900.46
2024-03-26T09:19:14.485Z,99904.02
2024-03-26T09:21:43.971Z,99901.03
2024-03-26T09:24:12.225Z,99897.43
2024-03-26T09:26:39.967Z,99897.91
2024-03-26T09:29:07.476Z,99901.08
2024-03-26T09:31:35.188Z,99901.04
2024-03-26T09:34:02.757Z,99900.83
2024-03-26T09:36:30.309Z,99903.62
2024-03-26T09:39:06.557Z,99902.16
2024-03-26T09:41:37.479Z,99904.94
2024-03-26T09:44:05.172Z,99902.67
2024-03-26T09:46:37.440Z,99897.13
2024-03-26T09:49:05.825Z,99890.02
2024-03-26T09:51:33.995Z,99903.91
2024-03-26T09:54:01.699Z,99906.77
2024-03-26T09:56:29.425Z,99908.39
2024-03-26T09:58:56.989Z,99906.60
2024-03-26T10:01:26.137Z,99911.63
2024-03-26T10:03:54.156Z,99912.83
2024-03-26T10:06:21.864Z,99916.40
2024-03-26T10:08:49.395Z,99914.10
2024-03-26T10:11:16.760Z,99915.82
2024-03-26T10:13:44.175Z,99915.95
2024-03-26T10:16:11.832Z,99917.52
2024-03-26T10:18:39.356Z,99914.73
2024-03-26T10:21:07.888Z,99914.06
2024-03-26T10:23:35.968Z,99917.91
2024-03-26T10:26:03.619Z,99917.73
2024-03-26T10:28:31.181Z,99915.98
2024-03-26T10:30:58.853Z,99913.30
2024-03-26T10:33:26.711Z,99916.76
2024-03-26T10:35:55.911Z,99917.11
2024-03-26T10:38:24.994Z,99916.64
2024-03-26T10:41:11.200Z,99926.84
2024-03-26T10:43:39.784Z,99928.08
2024-03-26T10:46:08.424Z,99922.73
2024-03-26T10:48:39.717Z,99929.40
2024-03-26T10:51:12.102Z,99928.11
2024-03-26T10:53:42.251Z,99924.02
2024-03-26T10:56:10.317Z,99930.36
2024-03-26T10:58:37.822Z,99925.15
2024-03-26T11:01:06.332Z,99930.19
2024-03-26T11:03:33.837Z,99930.17
2024-03-26T11:06:05.477Z,99927.83
2024-03-26T11:08:42.740Z,99933.84
2024-03-26T11:11:14.299Z,99939.56
2024-03-26T11:13:42.071Z,99939.98
2024-03-26T11:16:11.007Z,99943.45
2024-03-26T11:18:40.141Z,99949.80
2024-03-26T11:21:09.653Z,99947.54
2024-03-26T11:23:38.392Z,99943.81
2024-03-26T11:26:06.092Z,99945.71
2024-03-26T11:28:33.859Z,99947.68
2024-03-26T11:31:02.650Z,99944.56
2024-03-26T11:33:33.523Z,99950.17
2024-03-26T11:36:03.124Z,99947.68
2024-03-26T11:38:30.650Z,99949.40
2024-03-26T11:40:58.819Z,99947.09
2024-03-26T11:43:26.389Z,99947.44
2024-03-26T11:45:59.442Z,99947.52
2024-03-26T11:48:27.823Z,99948.54
2024-03-26T11:50:57.218Z,99948.96
2024-03-26T11:53:25.127Z,99946.91
2024-03-26T11:55:55.262Z,99948.69
2024-03-26T11:58:27.617Z,99953.04
2024-03-26T12:00:57.909Z,99949.46
2024-03-26T12:03:25.459Z,99962.11
2024-03-26T12:05:53.272Z,99965.60
2024-03-26T12:08:21.080Z,99963.42
2024-03-26T12:10:48.700Z,99958.30
2024-03-26T12:13:16.766Z,99961.17
2024-03-26T12:15:44.345Z,99959.05
2024-03-26T12:18:11.988Z,99953.81
2024-03-26T12:20:39.398Z,99956.16
2024-03-26T12:23:07.106Z,99956.69
2024-03-26T12:25:34.722Z,99954.58
2024-03-26T12:28:03.951Z,99952.84
2024-03-26T12:30:35.379Z,99953.45
2024-03-26T12:33:03.034Z,99949.44
2024-03-26T12:35:31.406Z,99950.56
2024-03-26T12:37:58.926Z,99957.95
2024-03-26T12:40:26.594Z,99959.71
2024-03-26T12:42:54.141Z,99960.59
2024-03-26T12:45:21.766Z,99963.72
2024-03-26T12:47:49.883Z,99968.09
2024-03-26T12:50:17.435Z,99967.15
2024-03-26T12:52:44.999Z,99969.38
2024-03-26T12:55:14.347Z,99972.86
2024-03-26T12:57:43.439Z,99973.20
2024-03-26T13:00:11.669Z,99977.27
2024-03-26T13:02:42.667Z,99978.82
2024-03-26T13:05:12.027Z,99980.48
2024-03-26T13:07:42.651Z,99981.95
2024-03-26T13:10:13.140Z,99978.69
2024-03-26T13:12:42.895Z,99976.27
2024-03-26T13:15:13.681Z,99975.37
2024-03-26T13:17:49.713Z,99975.98
2024-03-26T13:20:17.887Z,99972.52
2024-03-26T13:22:48.361Z,99972.15
2024-03-26T13:25:18.599Z,99975.73
2024-03-26T13:27:46.027Z,99971.51
2024-03-26T13:30:13.747Z,99974.88
2024-03-26T13:32:41.442Z,99975.64
2024-03-26T13:35:10.603Z,99975.44
2024-03-26T13:37:38.173Z,99974.38
2024-03-26T13:40:09.526Z,99979.23
2024-03-26T13:42:42.358Z,99984.40
2024-03-26T13:45:10.932Z,99982.24
2024-03-26T13:47:39.837Z,99981.59
2024-03-26T13:50:08.193Z,99976.34
2024-03-26T13:52:36.195Z,99983.10
2024-03-26T13:55:05.694Z,99980.60
2024-03-26T13:57:36.662Z,99980.48
2024-03-26T14:00:11.934Z,99982.51
2024-03-26T14:02:39.428Z,99979.95
2024-03-26T14:05:09.497Z,99985.63
2024-03-26T14:07:36.964Z,99983.41
2024-03-26T14:10:06.637Z,99985.23
2024-03-26T14:12:34.454Z,99983.38
2024-03-26T14:15:02.016Z,99982.04
2024-03-26T14:17:29.832Z,99985.83
2024-03-26T14:19:57.392Z,99989.45
2024-03-26T14:22:25.157Z,99992.13
2024-03-26T14:24:53.099Z,99997.10
2024-03-26T14:27:21.863Z,99989.67
2024-03-26T14:29:49.712Z,99990.69
2024-03-26T14:32:18.610Z,99990.16
2024-03-26T14:34:46.196Z,99985.19
2024-03-26T14:37:14.400Z,99988.40
2024-03-26T14:39:41.920Z,99992.05
2024-03-26T14:42:09.431Z,99992.16
2024-03-26T14:44:38.012Z,99994.75
2024-03-26T14:47:05.670Z,99997.52
2024-03-26T14:49:33.328Z,100004.64
2024-03-26T14:52:03.777Z,100006.96
2024-03-26T14:54:40.753Z,100011.70
2024-03-26T14:57:09.222Z,100014.48
2024-03-26T14:59:37.595Z,100015.46
2024-03-26T15:02:07.777Z,100016.50
2024-03-26T15:04:36.955Z,100017.84
2024-03-26T15:07:09.231Z,100022.81
2024-03-26T15:09:36.961Z,100020.47
2024-03-26T15:12:04.739Z,100026.27
2024-03-26T15:14:32.233Z,100028.20
2024-03-26T15:16:59.841Z,100033.91
2024-03-26T15:19:27.364Z,100036.27
2024-03-26T15:21:55.055Z,100038.38
2024-03-26T15:24:23.099Z,100036.10
2024-03-26T15:27:09.417Z,100044.77
2024-03-26T15:29:58.391Z,100047.42
2024-03-26T15:32:29.306Z,100052.19
2024-03-26T15:34:57.101Z,100058.45
2024-03-26T15:37:24.615Z,100060.70
2024-03-26T15:39:52.522Z,100068.34
2024-03-26T15:42:21.005Z,100070.34
2024-03-26T15:44:48.583Z,100076.42
2024-03-26T15:47:16.316Z,100074.45
2024-03-26T15:49:47.881Z,100078.39
2024-03-26T15:52:15.424Z,100080.64
2024-03-26T15:54:43.074Z,100080.13
2024-03-26T15:57:16.304Z,100075.50
2024-03-26T15:59:45.030Z,100077.92
2024-03-26T16:02:14.252Z,100081.52
2024-03-26T16:05:54.864Z,100083.43
2024-03-26T16:08:22.724Z,100082.67
2024-03-26T16:11:12.308Z,100085.67
2024-03-26T16:13:45.601Z,100089.96
2024-03-26T16:16:13.823Z,100093.22
2024-03-26T16:18:47.225Z,100101.86
2024-03-26T16:21:16.685Z,100105.00
2024-03-26T16:23:44.228Z,100114.17
2024-03-26T16:26:15.245Z,100115.56
2024-03-26T16:28:55.528Z,100119.97
2024-03-26T16:31:27.533Z,100125.89
2024-03-26T16:34:01.828Z,100131.77
2024-03-26T16:36:30.305Z,100138.48
2024-03-26T16:39:04.209Z,100140.28
2024-03-26T16:41:36.052Z,100140.12
2024-03-26T16:44:03.929Z,100145.60
2024-03-26T16:46:31.336Z,100143.99
2024-03-26T16:48:59.247Z,100146.73
2024-03-26T16:51:26.911Z,100147.95
2024-03-26T16:53:54.827Z,100148.17
2024-03-26T16:56:22.442Z,100154.30
2024-03-26T16:58:49.928Z,100158.23
2024-03-26T17:01:17.567Z,100161.77
2024-03-26T17:03:46.144Z,100167.64
2024-03-26T17:06:14.099Z,100170.73
2024-03-26T17:08:41.725Z,100178.59
2024-03-26T17:11:09.606Z,100184.98
2024-03-26T17:13:40.422Z,100186.34
2024-03-26T17:16:07.911Z,100187.41
2024-03-26T17:18:36.167Z,100188.41
2024-03-26T17:21:05.260Z,100187.48
2024-03-26T17:23:32.766Z,100191.18
2024-03-26T17:26:01.105Z,100190.35
2024-03-26T17:28:29.543Z,100190.48
2024-03-26T17:30:57.185Z,100191.50
2024-03-26T17:33:26.740Z,100195.20
2024-03-26T17:35:54.350Z,100196.58
2024-03-26T17:38:21.812Z,100196.77
2024-03-26T17:40:49.274Z,100195.30
2024-03-26T17:43:16.735Z,100199.23
2024-03-26T17:45:44.297Z,100203.98
2024-03-26T17:48:11.859Z,100201.86
2024-03-26T17:50:39.359Z,100205.12
2024-03-26T17:53:07.337Z,100207.27
2024-03-26T17:55:35.881Z,100208.30
2024-03-26T17:58:03.524Z,100208.23
2024-03-26T18:00:31.087Z,100208.98
2024-03-26T18:02:58.550Z,100212.38
2024-03-26T18:05:26.004Z,100213.91
2024-03-26T18:07:53.564Z,100218.52
2024-03-26T18:10:22.144Z,100219.88
2024-03-26T18:12:50.113Z,100222.39
2024-03-26T18:15:17.682Z,100222.99
2024-03-26T18:17:46.465Z,100224.02
2024-03-26T18:20:14.023Z,100230.14
2024-03-26T18:22:41.386Z,100232.02
2024-03-26T18:25:09.536Z,100232.47
2024-03-26T18:27:38.234Z,100230.34
2024-03-26T18:30:06.345Z,100234.31
2024-03-26T18:32:33.867Z,100232.91
2024-03-26T18:35:01.736Z,100235.83
2024-03-26T18:37:29.320Z,100230.31
2024-03-26T18:39:56.860Z,100236.96
2024-03-26T18:42:24.414Z,100241.08
2024-03-26T18:44:52.078Z,100244.14
2024-03-26T18:47:19.487Z,100246.96
2024-03-26T18:49:48.038Z,100250.42
2024-03-26T18:52:15.482Z,100256.88
2024-03-26T18:54:43.053Z,100257.75
2024-03-26T18:57:14.134Z,100256.83
2024-03-26T18:59:41.705Z,100259.27
2024-03-26T19:02:09.246Z,100259.63
2024-03-26T19:04:36.757Z,100263.05
2024-03-26T19:07:06.258Z,100259.35
2024-03-26T19:09:33.823Z,100259.74
2024-03-26T19:12:01.284Z,100261.94
2024-03-26T19:14:28.840Z,100262.96
2024-03-26T19:16:56.441Z,100266.80
2024-03-26T19:19:25.297Z,100268.61
2024-03-26T19:21:52.851Z,100270.09
2024-03-26T19:24:20.304Z,100266.21
2024-03-26T19:26:48.709Z,100262.02
2024-03-26T19:29:16.654Z,100265.69
2024-03-26T19:31:44.212Z,100271.48
2024-03-26T19:34:12.005Z,100272.35
2024-03-26T19:36:39.398Z,100272.75
2024-03-26T19:39:06.999Z,100278.16
2024-03-26T19:41:34.455Z,100274.99
2024-03-26T19:44:02.017Z,100275.04
2024-03-26T19:46:29.716Z,100277.03
2024-03-26T19:48:57.438Z,100281.97
2024-03-26T19:51:25.357Z,100282.67
2024-03-26T19:53:53.379Z,100279.91
2024-03-26T19:56:20.943Z,100280.98
2024-03-26T19:58:48.445Z,100284.34
2024-03-26T20:01:16.981Z,100284.95
2024-03-26T20:03:44.646Z,100284.77
2024-03-26T20:06:13.143Z,100286.44
2024-03-26T20:08:44.098Z,100288.83
2024-03-26T20:11:12.448Z,100294.02
2024-03-26T20:13:40.838Z,100297.14
2024-03-26T20:16:08.293Z,100300.20
2024-03-26T20:18:36.045Z,100302.89
2024-03-26T20:21:03.710Z,100303.67
2024-03-26T20:23:31.988Z,100303.75
2024-03-26T20:26:04.103Z,100308.31
2024-03-26T20:28:32.271Z,100311.95
2024-03-26T20:31:12.029Z,100310.27
2024-03-26T20:33:40.401Z,100309.58
2024-03-26T20:36:08.630Z,100312.52
2024-03-26T20:38:36.140Z,100315.48
2024-03-26T20:41:05.288Z,100315.87
2024-03-26T20:43:33.762Z,100320.00
2024-03-26T20:46:07.571Z,100329.72
2024-03-26T20:48:35.224Z,100332.19
2024-03-26T20:51:09.603Z,100337.52
2024-03-26T20:53:37.260Z,100335.57
2024-03-26T20:56:11.318Z,100333.05
2024-03-26T20:58:38.993Z,100327.22
2024-03-26T21:01:06.647Z,100327.79
2024-03-26T21:03:36.570Z,100329.54
2024-03-26T21:06:04.843Z,100326.65
2024-03-26T21:08:32.344Z,100331.32
2024-03-26T21:11:00.881Z,100335.55
2024-03-26T21:13:28.326Z,100338.80
2024-03-26T21:16:02.766Z,100336.95
2024-03-26T21:18:30.605Z,100340.11
2024-03-26T21:20:58.362Z,100339.44
2024-03-26T21:23:25.958Z,100338.38
2024-03-26T21:25:53.510Z,100344.50
2024-03-26T21:28:21.271Z,100349.45
2024-03-26T21:30:58.708Z,100349.63
2024-03-26T21:33:26.236Z,100352.61
2024-03-26T21:35:55.024Z,100353.13
2024-03-26T21:38:22.471Z,100353.19
2024-03-26T21:40:59.822Z,100354.21
2024-03-26T21:43:27.418Z,100357.04
2024-03-26T21:45:54.878Z,100355.00
2024-03-26T21:48:23.084Z,100360.77
2024-03-26T21:51:00.136Z,100358.23
2024-03-26T21:53:28.107Z,100357.59
2024-03-26T21:56:16.679Z,100357.27
2024-03-26T21:58:44.225Z,100359.25
2024-03-26T22:01:12.184Z,100360.92
2024-03-26T22:03:39.651Z,100361.11
2024-03-26T22:06:14.316Z,100361.63
2024-03-26T22:08:42.265Z,100364.85
2024-03-26T22:11:12.466Z,100371.63
2024-03-26T22:13:43.400Z,100376.69
2024-03-26T22:16:10.965Z,100378.01
2024-03-26T22:18:38.524Z,100378.84
2024-03-26T22:21:06.023Z,100371.63
2024-03-26T22:23:33.536Z,100371.11
2024-03-26T22:26:08.208Z,100370.22
2024-03-26T22:28:36.000Z,100372.04
2024-03-26T22:31:04.005Z,100373.40
2024-03-26T22:33:31.492Z,100379.62
2024-03-26T22:35:59.065Z,100385.52
2024-03-26T22:38:26.489Z,100385.75
2024-03-26T22:40:58.026Z,100385.05
2024-03-26T22:43:25.737Z,100385.32
2024-03-26T22:46:00.002Z,100382.90
2024-03-26T22:48:27.971Z,100383.63
2024-03-26T22:50:55.718Z,100381.56
2024-03-26T22:53:23.733Z,100385.99
2024-03-26T22:56:05.333Z,100390.36
2024-03-26T22:58:34.266Z,100390.02
2024-03-26T23:01:05.791Z,100395.08
2024-03-26T23:03:33.608Z,100394.46
2024-03-26T23:06:01.950Z,100398.45
2024-03-26T23:08:29.454Z,100399.02
2024-03-26T23:10:57.010Z,100394.15
2024-03-26T23:13:25.087Z,100385.46
2024-03-26T23:15:52.560Z,100383.92
2024-03-26T23:18:20.717Z,100386.07
2024-03-26T23:20:48.273Z,100385.15
2024-03-26T23:23:17.086Z,100384.52
2024-03-26T23:25:44.838Z,100382.64
2024-03-26T23:28:12.600Z,100382.77
2024-03-26T23:30:40.969Z,100378.35
2024-03-26T23:33:08.436Z,100383.21
2024-03-26T23:35:36.092Z,100386.14
2024-03-26T23:38:04.008Z,100387.92
2024-03-26T23:40:31.520Z,100390.48
2024-03-26T23:42:59.229Z,100389.50
2024-03-26T23:45:29.451Z,100385.41
2024-03-26T23:47:57.103Z,100384.84
2024-03-26T23:50:25.137Z,100384.19
2024-03-26T23:52:55.886Z,100378.23
2024-03-26T23:55:27.810Z,100380.17
2024-03-26T23:58:04.881Z,100379.85
